createdAt,value
2023-01-10T00:00:35.301Z,49.77
2023-01-10T00:03:22.147Z,56.10
2023-01-10T00:05:49.293Z,60.93
2023-01-10T00:08:17.645Z,56.33
2023-01-10T00:10:44.992Z,51.67
2023-01-10T00:13:25.028Z,49.93
2023-01-10T00:15:53.524Z,51.47
2023-01-10T00:18:21.731Z,55.27
2023-01-10T00:20:49.609Z,43.27
2023-01-10T00:23:18.447Z,58.77
2023-01-10T00:25:46.229Z,54.13
2023-01-10T00:28:22.163Z,49.87
2023-01-10T00:31:01.512Z,54.23
2023-01-10T00:33:29.951Z,56.47
2023-01-10T00:35:57.291Z,70.43
2023-01-10T00:38:24.243Z,56.63
2023-01-10T00:40:51.549Z,63.40
2023-01-10T00:43:36.777Z,54.77
2023-01-10T00:46:03.994Z,58.60
2023-01-10T00:48:30.953Z,61.83
2023-01-10T00:50:58.041Z,60.37
2023-01-10T00:53:24.788Z,110.23
2023-01-10T00:55:53.463Z,53.53
2023-01-10T00:58:20.475Z,63.40
2023-01-10T01:00:51.792Z,88.43
2023-01-10T01:03:20.819Z,67.43
2023-01-10T01:05:48.936Z,49.93
2023-01-10T01:08:17.944Z,52.67
2023-01-10T01:10:45.883Z,48.47
2023-01-10T01:13:15.650Z,55.30
2023-01-10T01:15:43.152Z,57.47
2023-01-10T01:18:13.278Z,57.13
2023-01-10T01:20:41.402Z,52.60
2023-01-10T01:23:08.699Z,55.90
2023-01-10T01:25:35.835Z,73.60
2023-01-10T01:28:02.697Z,49.07
2023-01-10T01:30:29.711Z,53.27
2023-01-10T01:32:56.633Z,46.70
2023-01-10T01:35:25.102Z,50.37
2023-01-10T01:37:52.088Z,49.23
2023-01-10T01:40:23.329Z,59.97
2023-01-10T01:42:55.689Z,47.87
2023-01-10T01:45:22.750Z,45.47
2023-01-10T01:47:54.885Z,61.20
2023-01-10T01:50:32.676Z,45.60
2023-01-10T01:53:02.229Z,104.67
2023-01-10T01:55:34.294Z,58.07
2023-01-10T01:58:07.021Z,41.87
2023-01-10T02:00:35.422Z,68.00
2023-01-10T02:03:03.886Z,124.80
2023-01-10T02:05:35.736Z,61.73
2023-01-10T02:08:02.759Z,42.87
2023-01-10T02:10:46.497Z,122.63
2023-01-10T02:13:16.036Z,48.70
2023-01-10T02:15:43.169Z,61.20
2023-01-10T02:18:10.445Z,46.03
2023-01-10T02:20:58.392Z,43.80
2023-01-10T02:24:13.579Z,41.23
2023-01-10T02:26:58.983Z,95.20
2023-01-10T02:29:44.058Z,43.37
2023-01-10T02:32:43.947Z,66.37
2023-01-10T02:36:02.615Z,61.13
2023-01-10T02:38:54.171Z,61.23
2023-01-10T02:41:52.063Z,54.63
2023-01-10T02:44:28.102Z,73.80
2023-01-10T02:46:56.377Z,81.93
2023-01-10T02:49:23.349Z,66.43
2023-01-10T02:51:50.112Z,81.13
2023-01-10T02:54:27.661Z,38.93
2023-01-10T02:57:10.125Z,48.47
2023-01-10T03:00:16.237Z,42.07
2023-01-10T03:03:20.023Z,54.03
2023-01-10T03:06:07.753Z,56.87
2023-01-10T03:08:42.631Z,39.73
2023-01-10T03:11:11.213Z,38.70
2023-01-10T03:13:48.485Z,37.27
2023-01-10T03:16:18.647Z,79.93
2023-01-10T03:18:51.902Z,39.70
2023-01-10T03:21:21.313Z,43.67
2023-01-10T03:23:50.674Z,34.23
2023-01-10T03:26:25.692Z,37.90
2023-01-10T03:28:58.757Z,38.60
2023-01-10T03:31:36.285Z,38.53
2023-01-10T03:34:03.662Z,37.63
2023-01-10T03:37:07.580Z,30.77
2023-01-10T03:39:37.342Z,38.80
2023-01-10T03:42:23.472Z,41.53
2023-01-10T03:45:09.681Z,42.47
2023-01-10T03:47:47.714Z,41.30
2023-01-10T03:50:23.750Z,39.23
2023-01-10T03:52:50.928Z,37.17
2023-01-10T03:55:24.209Z,41.00
2023-01-10T03:57:51.345Z,35.30
2023-01-10T04:00:18.842Z,37.20
2023-01-10T04:02:45.982Z,39.50
2023-01-10T04:05:13.435Z,48.63
2023-01-10T04:07:40.601Z,44.17
2023-01-10T04:10:07.902Z,46.03
2023-01-10T04:12:35.027Z,37.70
2023-01-10T04:15:03.118Z,51.17
2023-01-10T04:17:30.250Z,42.37
2023-01-10T04:19:57.006Z,40.80
2023-01-10T04:22:24.101Z,38.77
2023-01-10T04:24:54.430Z,44.03
2023-01-10T04:27:21.575Z,40.63
2023-01-10T04:29:48.352Z,49.03
2023-01-10T04:32:15.792Z,59.27
2023-01-10T04:34:42.581Z,49.50
2023-01-10T04:37:09.638Z,44.70
2023-01-10T04:39:36.758Z,38.57
2023-01-10T04:42:03.856Z,57.13
2023-01-10T04:44:30.539Z,40.90
2023-01-10T04:46:57.618Z,67.47
2023-01-10T04:49:24.428Z,53.90
2023-01-10T04:51:51.463Z,47.47
2023-01-10T04:54:22.423Z,77.17
2023-01-10T04:56:49.801Z,73.73
2023-01-10T04:59:17.027Z,51.53
2023-01-10T05:01:44.333Z,31.20
2023-01-10T05:04:11.197Z,38.20
2023-01-10T05:06:40.226Z,56.27
2023-01-10T05:09:09.671Z,56.80
2023-01-10T05:11:36.665Z,25.53
2023-01-10T05:14:03.624Z,96.97
2023-01-10T05:16:30.764Z,65.30
2023-01-10T05:18:57.764Z,107.97
2023-01-10T05:21:24.878Z,46.87
2023-01-10T05:23:51.563Z,59.70
2023-01-10T05:26:21.758Z,73.10
2023-01-10T05:28:48.543Z,70.97
2023-01-10T05:31:19.619Z,43.20
2023-01-10T05:33:51.254Z,70.70
2023-01-10T05:36:19.081Z,91.60
2023-01-10T05:38:46.242Z,123.33
2023-01-10T05:41:13.372Z,125.03
2023-01-10T05:43:40.060Z,68.63
2023-01-10T05:46:07.357Z,98.03
2023-01-10T05:48:34.172Z,53.03
2023-01-10T05:51:01.363Z,116.70
2023-01-10T05:53:28.168Z,133.57
2023-01-10T05:56:00.613Z,235.00
2023-01-10T05:58:28.135Z,135.23
2023-01-10T06:00:57.064Z,180.80
2023-01-10T06:03:26.427Z,247.63
2023-01-10T06:05:57.049Z,173.17
2023-01-10T06:08:24.484Z,164.43
2023-01-10T06:10:51.621Z,94.83
2023-01-10T06:13:18.381Z,121.10
2023-01-10T06:15:45.919Z,47.63
2023-01-10T06:18:13.316Z,64.17
2023-01-10T06:20:41.213Z,54.10
2023-01-10T06:23:08.021Z,75.30
2023-01-10T06:25:37.661Z,37.23
2023-01-10T06:28:04.573Z,51.60
2023-01-10T06:30:31.704Z,78.67
2023-01-10T06:33:02.620Z,117.67
2023-01-10T06:35:30.319Z,97.20
2023-01-10T06:37:58.574Z,66.93
2023-01-10T06:40:26.699Z,68.67
2023-01-10T06:42:53.554Z,72.60
2023-01-10T06:45:21.259Z,75.23
2023-01-10T06:47:48.259Z,42.53
2023-01-10T06:50:15.473Z,39.40
2023-01-10T06:52:42.449Z,40.27
2023-01-10T06:55:09.750Z,39.10
2023-01-10T06:57:38.251Z,43.67
2023-01-10T07:00:07.508Z,42.90
2023-01-10T07:02:34.339Z,43.13
2023-01-10T07:05:01.866Z,45.33
2023-01-10T07:07:28.836Z,49.87
2023-01-10T07:09:55.846Z,43.27
2023-01-10T07:12:22.759Z,43.47
2023-01-10T07:14:49.748Z,46.20
2023-01-10T07:17:16.611Z,51.43
2023-01-10T07:19:43.638Z,37.87
2023-01-10T07:22:11.952Z,38.33
2023-01-10T07:24:38.950Z,39.70
2023-01-10T07:27:05.675Z,36.47
2023-01-10T07:29:32.826Z,43.40
2023-01-10T07:31:59.616Z,49.33
2023-01-10T07:34:26.672Z,48.23
2023-01-10T07:36:53.385Z,45.43
2023-01-10T07:39:20.451Z,38.00
2023-01-10T07:41:47.965Z,53.30
2023-01-10T07:44:16.679Z,38.97
2023-01-10T07:46:43.660Z,41.07
2023-01-10T07:49:10.722Z,59.93
2023-01-10T07:51:37.535Z,37.77
2023-01-10T07:54:04.572Z,40.50
2023-01-10T07:56:31.266Z,46.47
2023-01-10T07:58:58.356Z,48.53
2023-01-10T08:01:26.121Z,40.40
2023-01-10T08:03:53.273Z,39.17
2023-01-10T08:06:19.981Z,40.33
2023-01-10T08:08:46.944Z,35.50
2023-01-10T08:11:13.815Z,36.73
2023-01-10T08:13:41.098Z,38.87
2023-01-10T08:16:08.527Z,34.83
2023-01-10T08:18:36.248Z,36.87
2023-01-10T08:21:03.053Z,37.10
2023-01-10T08:23:30.195Z,34.73
2023-01-10T08:25:59.366Z,40.57
2023-01-10T08:28:26.446Z,37.97
2023-01-10T08:30:55.742Z,48.47
2023-01-10T08:33:24.299Z,47.93
2023-01-10T08:35:51.473Z,51.63
2023-01-10T08:38:18.611Z,49.17
2023-01-10T08:40:45.448Z,39.40
2023-01-10T08:43:13.546Z,39.00
2023-01-10T08:45:40.831Z,40.07
2023-01-10T08:48:09.536Z,42.43
2023-01-10T08:50:37.095Z,41.23
2023-01-10T08:53:04.447Z,35.73
2023-01-10T08:55:31.869Z,39.87
2023-01-10T08:58:00.636Z,41.63
2023-01-10T09:00:28.110Z,40.33
2023-01-10T09:02:55.224Z,41.93
2023-01-10T09:05:27.569Z,42.03
2023-01-10T09:08:00.272Z,40.33
2023-01-10T09:10:28.373Z,39.97
2023-01-10T09:12:59.613Z,42.10
2023-01-10T09:15:29.034Z,41.47
2023-01-10T09:18:00.769Z,45.83
2023-01-10T09:20:29.246Z,43.30
2023-01-10T09:22:57.191Z,44.60
2023-01-10T09:25:24.981Z,40.47
2023-01-10T09:27:59.661Z,39.47
2023-01-10T09:30:28.955Z,40.50
2023-01-10T09:33:00.281Z,38.57
2023-01-10T09:35:28.982Z,39.63
2023-01-10T09:37:57.938Z,46.83
2023-01-10T09:40:37.897Z,42.97
2023-01-10T09:43:43.920Z,43.97
2023-01-10T09:46:22.014Z,41.50
2023-01-10T09:48:55.558Z,46.80
2023-01-10T09:51:42.791Z,47.10
2023-01-10T09:54:20.556Z,46.60
2023-01-10T09:56:47.696Z,44.73
2023-01-10T09:59:21.003Z,49.67
2023-01-10T10:01:52.679Z,52.53
2023-01-10T10:04:35.245Z,50.40
2023-01-10T10:07:06.839Z,44.70
2023-01-10T10:09:37.741Z,49.17
2023-01-10T10:12:32.750Z,46.67
2023-01-10T10:15:21.641Z,49.27
2023-01-10T10:18:10.383Z,45.73
2023-01-10T10:20:49.502Z,49.40
2023-01-10T10:23:34.620Z,51.83
2023-01-10T10:26:07.677Z,48.97
2023-01-10T10:28:55.119Z,51.33
2023-01-10T10:31:31.574Z,51.87
2023-01-10T10:34:18.407Z,52.67
2023-01-10T10:36:56.281Z,50.50
2023-01-10T10:39:48.625Z,51.67
2023-01-10T10:42:17.445Z,53.20
2023-01-10T10:44:54.293Z,48.83
2023-01-10T10:47:24.130Z,56.97
2023-01-10T10:49:59.659Z,58.30
2023-01-10T10:52:32.143Z,57.30
2023-01-10T10:54:59.303Z,60.10
2023-01-10T10:57:29.672Z,59.90
2023-01-10T10:59:57.192Z,53.47
2023-01-10T11:02:28.532Z,59.13
2023-01-10T11:05:00.652Z,57.80
2023-01-10T11:07:36.849Z,64.37
2023-01-10T11:10:32.333Z,70.70
2023-01-10T11:13:01.823Z,64.67
2023-01-10T11:15:36.432Z,63.00
2023-01-10T11:18:16.390Z,62.17
2023-01-10T11:20:52.864Z,68.70
2023-01-10T11:23:40.178Z,69.17
2023-01-10T11:26:10.051Z,68.13
2023-01-10T11:28:38.212Z,63.83
2023-01-10T11:31:05.308Z,69.77
2023-01-10T11:33:39.928Z,67.93
2023-01-10T11:36:15.859Z,62.73
2023-01-10T11:38:43.586Z,83.83
2023-01-10T11:41:19.100Z,79.63
2023-01-10T11:43:46.188Z,83.70
2023-01-10T11:46:17.705Z,79.60
2023-01-10T11:49:08.336Z,78.23
2023-01-10T11:51:44.887Z,70.23
2023-01-10T11:54:17.603Z,68.17
2023-01-10T11:56:56.168Z,65.93
2023-01-10T11:59:24.322Z,74.10
2023-01-10T12:02:00.712Z,72.60
2023-01-10T12:04:31.568Z,71.37
2023-01-10T12:07:09.821Z,73.10
2023-01-10T12:09:59.793Z,67.20
2023-01-10T12:12:33.531Z,68.33
2023-01-10T12:15:23.043Z,70.87
2023-01-10T12:17:50.078Z,70.90
2023-01-10T12:20:17.369Z,65.57
2023-01-10T12:22:49.635Z,66.40
2023-01-10T12:25:21.122Z,64.97
2023-01-10T12:27:50.429Z,67.10
2023-01-10T12:30:31.236Z,65.93
2023-01-10T12:33:01.524Z,71.67
2023-01-10T12:35:49.033Z,68.43
2023-01-10T12:38:54.599Z,71.80
2023-01-10T12:41:52.503Z,74.87
2023-01-10T12:44:23.746Z,79.23
2023-01-10T12:47:07.430Z,76.97
2023-01-10T12:49:44.589Z,83.07
2023-01-10T12:52:23.705Z,76.13
2023-01-10T12:54:50.602Z,76.93
2023-01-10T12:57:26.013Z,75.80
2023-01-10T12:59:53.986Z,83.90
2023-01-10T13:02:25.121Z,82.13
2023-01-10T13:04:58.938Z,83.17
2023-01-10T13:07:34.406Z,84.00
2023-01-10T13:10:03.140Z,86.37
2023-01-10T13:12:36.870Z,82.33
2023-01-10T13:15:27.022Z,80.47
2023-01-10T13:18:04.830Z,90.63
2023-01-10T13:20:40.357Z,84.17
2023-01-10T13:23:30.396Z,85.93
2023-01-10T13:26:00.633Z,83.73
2023-01-10T13:28:29.557Z,86.03
2023-01-10T13:31:01.139Z,80.77
2023-01-10T13:33:32.240Z,87.83
2023-01-10T13:36:12.342Z,96.67
2023-01-10T13:38:49.375Z,94.67
2023-01-10T13:41:34.911Z,90.27
2023-01-10T13:44:06.537Z,86.27
2023-01-10T13:46:42.135Z,97.77
2023-01-10T13:49:12.113Z,97.13
2023-01-10T13:51:59.627Z,91.00
2023-01-10T13:54:28.016Z,84.13
2023-01-10T13:56:54.725Z,92.63
2023-01-10T13:59:43.469Z,93.67
2023-01-10T14:02:30.057Z,99.60
2023-01-10T14:05:04.669Z,89.30
2023-01-10T14:07:48.661Z,96.43
2023-01-10T14:10:23.395Z,86.23
2023-01-10T14:12:56.519Z,95.17
2023-01-10T14:15:34.110Z,92.10
2023-01-10T14:18:32.207Z,94.20
2023-01-10T14:21:03.208Z,94.00
2023-01-10T14:23:43.138Z,88.77
2023-01-10T14:26:23.289Z,94.97
2023-01-10T14:28:50.849Z,106.80
2023-01-10T14:31:23.963Z,101.23
2023-01-10T14:33:51.844Z,96.97
2023-01-10T14:36:23.826Z,101.53
2023-01-10T14:38:56.955Z,103.53
2023-01-10T14:41:35.940Z,93.50
2023-01-10T14:44:11.792Z,113.67
2023-01-10T14:46:53.238Z,112.20
2023-01-10T14:49:24.929Z,103.57
2023-01-10T14:51:53.422Z,105.70
2023-01-10T14:54:23.511Z,102.93
2023-01-10T14:56:53.045Z,106.93
2023-01-10T14:59:31.438Z,107.80
2023-01-10T15:02:13.058Z,101.60
2023-01-10T15:04:51.757Z,103.87
2023-01-10T15:07:22.711Z,101.57
2023-01-10T15:09:51.910Z,105.27
2023-01-10T15:12:21.543Z,92.47
2023-01-10T15:14:50.390Z,97.17
2023-01-10T15:17:22.596Z,95.60
2023-01-10T15:19:52.359Z,106.53
2023-01-10T15:22:31.212Z,88.27
2023-01-10T15:25:25.477Z,87.10
2023-01-10T15:27:53.029Z,92.20
2023-01-10T15:30:26.096Z,66.50
2023-01-10T15:33:06.109Z,85.90
2023-01-10T15:35:36.512Z,82.70
2023-01-10T15:38:08.348Z,79.20
2023-01-10T15:40:38.756Z,78.63
2023-01-10T15:43:18.361Z,79.17
2023-01-10T15:45:46.869Z,77.03
2023-01-10T15:48:41.008Z,74.10
2023-01-10T15:51:20.475Z,83.67
2023-01-10T15:53:51.139Z,83.53
2023-01-10T15:56:22.219Z,87.90
2023-01-10T15:58:49.546Z,84.80
2023-01-10T16:01:17.066Z,78.03
2023-01-10T16:03:44.239Z,80.87
2023-01-10T16:06:32.633Z,89.23
2023-01-10T16:09:03.351Z,83.97
2023-01-10T16:11:57.897Z,85.07
2023-01-10T16:14:24.993Z,91.73
2023-01-10T16:16:51.968Z,91.17
2023-01-10T16:19:19.041Z,79.53
2023-01-10T16:21:50.576Z,101.57
2023-01-10T16:24:22.169Z,94.20
2023-01-10T16:26:50.111Z,97.27
2023-01-10T16:29:17.436Z,100.87
2023-01-10T16:31:44.301Z,104.87
2023-01-10T16:34:11.365Z,97.40
2023-01-10T16:36:38.329Z,95.80
2023-01-10T16:39:16.301Z,91.67
2023-01-10T16:42:03.331Z,84.93
2023-01-10T16:44:31.656Z,79.67
2023-01-10T16:46:58.639Z,73.67
2023-01-10T16:49:25.957Z,68.53
2023-01-10T16:51:53.976Z,70.23
2023-01-10T16:54:22.817Z,80.20
2023-01-10T16:56:49.761Z,71.77
2023-01-10T16:59:20.508Z,75.93
2023-01-10T17:01:51.799Z,73.67
2023-01-10T17:04:24.667Z,77.53
2023-01-10T17:06:51.593Z,78.40
2023-01-10T17:09:28.383Z,89.57
2023-01-10T17:12:02.061Z,84.30
2023-01-10T17:14:31.039Z,74.73
2023-01-10T17:16:57.985Z,98.77
2023-01-10T17:19:28.066Z,85.30
2023-01-10T17:21:54.756Z,89.87
2023-01-10T17:24:21.903Z,88.43
2023-01-10T17:26:48.712Z,85.03
2023-01-10T17:29:15.719Z,75.47
2023-01-10T17:31:42.526Z,75.17
2023-01-10T17:34:09.538Z,75.37
2023-01-10T17:36:38.797Z,76.70
2023-01-10T17:39:07.017Z,71.73
2023-01-10T17:41:34.265Z,80.73
2023-01-10T17:44:01.671Z,81.37
2023-01-10T17:46:28.555Z,80.20
2023-01-10T17:48:55.555Z,78.90
2023-01-10T17:51:24.639Z,68.43
2023-01-10T17:53:54.149Z,65.40
2023-01-10T17:56:21.180Z,63.43
2023-01-10T17:58:48.462Z,62.93
2023-01-10T18:01:22.857Z,61.67
2023-01-10T18:03:52.264Z,68.33
2023-01-10T18:06:24.134Z,64.37
2023-01-10T18:08:52.109Z,70.33
2023-01-10T18:11:18.895Z,66.23
2023-01-10T18:13:45.865Z,61.53
2023-01-10T18:16:12.679Z,76.33
2023-01-10T18:18:39.725Z,65.67
2023-01-10T18:21:12.817Z,63.97
2023-01-10T18:23:40.044Z,56.47
2023-01-10T18:26:09.408Z,62.30
2023-01-10T18:28:44.231Z,62.23
2023-01-10T18:31:16.591Z,64.87
2023-01-10T18:33:44.877Z,59.77
2023-01-10T18:36:17.424Z,65.17
2023-01-10T18:38:46.216Z,58.80
2023-01-10T18:41:14.204Z,83.20
2023-01-10T18:43:41.597Z,78.27
2023-01-10T18:46:14.710Z,72.43
2023-01-10T18:48:41.815Z,77.53
2023-01-10T18:51:10.038Z,69.10
2023-01-10T18:53:37.097Z,67.33
2023-01-10T18:56:05.236Z,92.70
2023-01-10T18:58:35.363Z,79.77
2023-01-10T19:01:07.964Z,77.37
2023-01-10T19:03:35.998Z,78.20
2023-01-10T19:06:04.894Z,81.30
2023-01-10T19:08:32.414Z,70.63
2023-01-10T19:11:15.836Z,70.00
2023-01-10T19:13:44.540Z,64.60
2023-01-10T19:16:17.565Z,71.37
2023-01-10T19:18:49.040Z,64.10
2023-01-10T19:21:16.446Z,67.17
2023-01-10T19:23:45.613Z,74.57
2023-01-10T19:26:13.243Z,68.53
2023-01-10T19:28:41.346Z,68.07
2023-01-10T19:31:08.311Z,59.33
2023-01-10T19:33:37.536Z,62.67
2023-01-10T19:36:07.798Z,62.60
2023-01-10T19:38:35.466Z,65.23
2023-01-10T19:41:03.297Z,58.13
2023-01-10T19:43:30.595Z,60.73
2023-01-10T19:45:57.400Z,57.03
2023-01-10T19:48:25.123Z,69.57
2023-01-10T19:50:52.069Z,60.53
2023-01-10T19:53:23.771Z,63.00
2023-01-10T19:56:00.259Z,61.13
2023-01-10T19:58:27.276Z,61.67
2023-01-10T20:00:54.057Z,58.13
2023-01-10T20:03:21.286Z,56.80
2023-01-10T20:05:48.112Z,61.57
2023-01-10T20:08:15.160Z,52.90
2023-01-10T20:10:41.963Z,55.57
2023-01-10T20:13:10.346Z,59.77
2023-01-10T20:15:37.359Z,63.93
2023-01-10T20:18:04.408Z,61.63
2023-01-10T20:20:31.203Z,66.43
2023-01-10T20:22:58.261Z,60.90
2023-01-10T20:25:25.113Z,55.33
2023-01-10T20:27:52.550Z,56.90
2023-01-10T20:30:19.306Z,51.60
2023-01-10T20:32:46.373Z,50.80
2023-01-10T20:35:13.984Z,55.67
2023-01-10T20:37:41.090Z,56.20
2023-01-10T20:40:09.777Z,60.23
2023-01-10T20:42:36.928Z,55.43
2023-01-10T20:45:04.138Z,56.17
2023-01-10T20:47:32.647Z,56.63
2023-01-10T20:49:59.398Z,50.57
2023-01-10T20:52:27.217Z,49.60
2023-01-10T20:54:54.000Z,51.07
2023-01-10T20:57:21.209Z,51.70
2023-01-10T20:59:47.915Z,48.40
2023-01-10T21:02:14.874Z,43.80
2023-01-10T21:04:41.615Z,53.30
2023-01-10T21:07:08.589Z,50.23
2023-01-10T21:09:35.346Z,50.70
2023-01-10T21:12:21.507Z,53.77
2023-01-10T21:14:49.399Z,48.90
2023-01-10T21:17:16.581Z,50.33
2023-01-10T21:19:43.307Z,48.17
2023-01-10T21:22:10.387Z,54.67
2023-01-10T21:24:37.404Z,56.63
2023-01-10T21:27:04.543Z,63.37
2023-01-10T21:29:31.304Z,65.10
2023-01-10T21:31:58.357Z,53.20
2023-01-10T21:34:25.199Z,53.47
2023-01-10T21:36:52.622Z,79.40
2023-01-10T21:39:19.721Z,76.93
2023-01-10T21:42:05.324Z,72.10
2023-01-10T21:44:32.101Z,59.43
2023-01-10T21:46:59.110Z,54.77
2023-01-10T21:49:25.890Z,54.10
2023-01-10T21:51:52.961Z,53.57
2023-01-10T21:54:19.885Z,49.97
2023-01-10T21:56:46.980Z,43.90
2023-01-10T21:59:13.788Z,50.30
2023-01-10T22:01:41.011Z,44.50
2023-01-10T22:04:07.864Z,46.23
2023-01-10T22:06:35.089Z,42.73
2023-01-10T22:09:01.857Z,43.83
2023-01-10T22:11:29.167Z,43.20
2023-01-10T22:13:57.193Z,46.83
2023-01-10T22:16:24.321Z,48.07
2023-01-10T22:18:51.157Z,47.03
2023-01-10T22:21:19.692Z,43.90
2023-01-10T22:23:46.616Z,41.97
2023-01-10T22:26:15.686Z,50.73
2023-01-10T22:28:42.660Z,35.07
2023-01-10T22:31:10.420Z,40.73
2023-01-10T22:33:38.520Z,43.73
2023-01-10T22:36:07.044Z,47.90
2023-01-10T22:38:34.085Z,35.30
2023-01-10T22:41:16.837Z,36.03
2023-01-10T22:43:44.442Z,38.00
2023-01-10T22:46:15.493Z,39.60
2023-01-10T22:48:43.239Z,37.47
2023-01-10T22:51:10.301Z,36.97
2023-01-10T22:53:37.140Z,35.27
2023-01-10T22:56:06.497Z,36.93
2023-01-10T22:58:33.360Z,33.73
2023-01-10T23:01:04.586Z,32.30
2023-01-10T23:03:31.528Z,31.77
2023-01-10T23:05:59.553Z,30.97
2023-01-10T23:08:27.475Z,34.20
2023-01-10T23:10:54.691Z,27.03
2023-01-10T23:13:22.636Z,31.63
2023-01-10T23:16:03.877Z,37.43
2023-01-10T23:18:31.149Z,34.57
2023-01-10T23:20:58.285Z,30.77
2023-01-10T23:23:26.099Z,30.57
2023-01-10T23:26:03.146Z,31.23
2023-01-10T23:28:37.225Z,33.97
2023-01-10T23:31:05.659Z,32.10
2023-01-10T23:33:33.187Z,33.70
2023-01-10T23:36:00.596Z,43.57
2023-01-10T23:38:27.784Z,43.00
2023-01-10T23:40:54.955Z,38.77
2023-01-10T23:43:22.138Z,45.17
2023-01-10T23:45:49.239Z,53.00
2023-01-10T23:48:16.723Z,50.60
2023-01-10T23:50:43.881Z,57.37
2023-01-10T23:53:10.588Z,56.20
2023-01-10T23:55:37.673Z,49.37
2023-01-10T23:58:04.407Z,54.80
